createdAt,value
2019-01-29T00:00:29.564Z,9.20
2019-01-29T00:02:58.610Z,9.47
2019-01-29T00:05:27.646Z,10.07
2019-01-29T00:07:56.658Z,10.07
2019-01-29T00:10:25.506Z,9.90
2019-01-29T00:12:54.355Z,9.30
2019-01-29T00:15:23.376Z,10.20
2019-01-29T00:17:52.296Z,10.30
2019-01-29T00:20:21.123Z,10.33
2019-01-29T00:22:49.994Z,10.60
2019-01-29T00:25:18.950Z,11.73
2019-01-29T00:27:47.971Z,11.10
2019-01-29T00:30:17.006Z,10.30
2019-01-29T00:32:45.978Z,10.90
2019-01-29T00:35:15.118Z,11.03
2019-01-29T00:37:44.046Z,10.13
2019-01-29T00:40:13.174Z,10.80
2019-01-29T00:42:42.077Z,10.07
2019-01-29T00:45:11.338Z,10.87
2019-01-29T00:47:40.173Z,11.27
2019-01-29T00:50:09.707Z,10.43
2019-01-29T00:52:42.160Z,10.30
2019-01-29T00:55:10.543Z,10.47
2019-01-29T00:57:39.434Z,10.27
2019-01-29T01:00:15.211Z,10.70
2019-01-29T01:02:44.155Z,10.30
2019-01-29T01:05:14.452Z,10.50
2019-01-29T01:07:43.377Z,10.60
2019-01-29T01:10:14.519Z,10.83
2019-01-29T01:12:43.424Z,10.13
2019-01-29T01:15:12.624Z,10.90
2019-01-29T01:17:41.630Z,10.20
2019-01-29T01:20:13.206Z,10.67
2019-01-29T01:22:50.406Z,11.60
2019-01-29T01:25:13.800Z,10.40
2019-01-29T01:27:42.654Z,10.20
2019-01-29T01:30:14.211Z,8.83
2019-01-29T01:32:43.298Z,11.10
2019-01-29T01:35:12.511Z,10.10
2019-01-29T01:37:41.417Z,9.97
2019-01-29T01:40:14.238Z,9.90
2019-01-29T01:42:43.251Z,10.00
2019-01-29T01:45:12.538Z,9.80
2019-01-29T01:47:41.463Z,9.70
2019-01-29T01:50:11.179Z,10.80
2019-01-29T01:52:40.289Z,10.23
2019-01-29T01:55:11.547Z,10.10
2019-01-29T01:57:40.503Z,9.63
2019-01-29T02:00:13.003Z,9.97
2019-01-29T02:02:41.894Z,9.80
2019-01-29T02:05:10.900Z,9.80
2019-01-29T02:07:39.994Z,9.90
2019-01-29T02:10:13.334Z,9.57
2019-01-29T02:12:42.222Z,10.00
2019-01-29T02:15:11.491Z,9.37
2019-01-29T02:17:40.375Z,9.20
2019-01-29T02:20:10.310Z,9.77
2019-01-29T02:22:39.319Z,9.07
2019-01-29T02:25:08.395Z,8.67
2019-01-29T02:27:37.254Z,9.33
2019-01-29T02:30:09.485Z,9.20
2019-01-29T02:32:38.397Z,9.10
2019-01-29T02:35:07.415Z,8.87
2019-01-29T02:37:36.312Z,9.00
2019-01-29T02:40:08.035Z,8.17
2019-01-29T02:42:36.897Z,8.43
2019-01-29T02:45:07.619Z,8.70
2019-01-29T02:47:36.466Z,8.80
2019-01-29T02:50:06.111Z,8.13
2019-01-29T02:52:34.979Z,8.90
2019-01-29T02:55:04.395Z,8.13
2019-01-29T02:57:33.274Z,8.57
2019-01-29T03:00:02.143Z,8.77
2019-01-29T03:02:30.954Z,9.00
2019-01-29T03:04:59.803Z,8.47
2019-01-29T03:07:28.698Z,8.50
2019-01-29T03:09:57.542Z,7.73
2019-01-29T03:12:26.462Z,8.00
2019-01-29T03:14:55.360Z,8.50
2019-01-29T03:17:24.246Z,8.00
2019-01-29T03:19:53.188Z,7.93
2019-01-29T03:22:22.078Z,7.90
2019-01-29T03:24:50.982Z,7.90
2019-01-29T03:27:19.799Z,7.30
2019-01-29T03:29:48.694Z,7.37
2019-01-29T03:32:17.616Z,7.70
2019-01-29T03:34:46.446Z,6.87
2019-01-29T03:37:15.413Z,7.50
2019-01-29T03:39:44.442Z,6.87
2019-01-29T03:42:13.312Z,7.20
2019-01-29T03:44:42.171Z,7.30
2019-01-29T03:47:11.068Z,7.00
2019-01-29T03:49:39.961Z,6.57
2019-01-29T03:52:08.995Z,6.27
2019-01-29T03:54:37.894Z,6.27
2019-01-29T03:57:06.807Z,6.43
2019-01-29T03:59:35.638Z,6.03
2019-01-29T04:02:04.663Z,6.10
2019-01-29T04:04:33.500Z,5.70
2019-01-29T04:07:02.352Z,6.23
2019-01-29T04:09:31.356Z,5.70
2019-01-29T04:12:00.215Z,5.97
2019-01-29T04:14:29.283Z,6.50
2019-01-29T04:16:58.255Z,6.20
2019-01-29T04:19:28.831Z,6.00
2019-01-29T04:21:57.714Z,5.90
2019-01-29T04:24:26.560Z,5.90
2019-01-29T04:26:55.407Z,5.77
2019-01-29T04:29:24.298Z,5.77
2019-01-29T04:31:53.152Z,5.77
2019-01-29T04:34:22.084Z,6.50
2019-01-29T04:36:50.947Z,6.13
2019-01-29T04:39:19.776Z,5.97
2019-01-29T04:41:48.674Z,6.07
2019-01-29T04:44:17.549Z,6.23
2019-01-29T04:46:46.448Z,6.60
2019-01-29T04:49:15.503Z,6.43
2019-01-29T04:51:44.315Z,6.53
2019-01-29T04:54:13.186Z,7.17
2019-01-29T04:56:42.179Z,6.60
2019-01-29T04:59:11.226Z,6.67
2019-01-29T05:01:40.176Z,6.40
2019-01-29T05:04:09.082Z,6.57
2019-01-29T05:06:37.878Z,6.60
2019-01-29T05:09:08.876Z,7.23
2019-01-29T05:11:37.767Z,6.63
2019-01-29T05:14:07.018Z,7.53
2019-01-29T05:16:35.867Z,8.00
2019-01-29T05:19:05.083Z,7.33
2019-01-29T05:21:33.962Z,8.40
2019-01-29T05:24:06.887Z,8.43
2019-01-29T05:26:33.493Z,8.20
2019-01-29T05:29:02.426Z,8.63
2019-01-29T05:31:31.281Z,8.27
2019-01-29T05:34:00.328Z,8.57
2019-01-29T05:36:29.225Z,8.57
2019-01-29T05:38:58.090Z,8.63
2019-01-29T05:41:26.967Z,8.20
2019-01-29T05:43:55.821Z,8.57
2019-01-29T05:46:25.251Z,8.70
2019-01-29T05:48:54.184Z,8.27
2019-01-29T05:51:23.018Z,9.00
2019-01-29T05:53:51.948Z,8.10
2019-01-29T05:56:20.765Z,7.90
2019-01-29T05:58:49.601Z,8.30
2019-01-29T06:01:18.612Z,8.03
2019-01-29T06:03:47.452Z,7.90
2019-01-29T06:06:16.407Z,7.80
2019-01-29T06:08:45.235Z,8.10
2019-01-29T06:11:14.189Z,8.73
2019-01-29T06:13:43.092Z,7.83
2019-01-29T06:16:12.001Z,7.67
2019-01-29T06:18:40.843Z,7.97
2019-01-29T06:21:09.769Z,7.80
2019-01-29T06:23:38.607Z,7.40
2019-01-29T06:26:07.536Z,7.23
2019-01-29T06:28:36.473Z,7.03
2019-01-29T06:31:05.474Z,6.90
2019-01-29T06:33:34.412Z,6.13
2019-01-29T06:36:03.356Z,6.53
2019-01-29T06:38:32.271Z,6.50
2019-01-29T06:41:01.201Z,5.80
2019-01-29T06:43:30.134Z,6.07
2019-01-29T06:45:58.963Z,6.87
2019-01-29T06:48:27.817Z,7.33
2019-01-29T06:50:56.794Z,8.50
2019-01-29T06:53:25.692Z,9.83
2019-01-29T06:55:54.518Z,10.57
2019-01-29T06:58:23.351Z,10.63
2019-01-29T07:00:52.178Z,11.77
2019-01-29T07:03:21.183Z,11.07
2019-01-29T07:05:50.063Z,11.70
2019-01-29T07:08:18.948Z,12.40
2019-01-29T07:10:47.834Z,12.80
2019-01-29T07:13:16.675Z,12.23
2019-01-29T07:16:16.498Z,11.80
2019-01-29T07:18:56.261Z,11.50
2019-01-29T07:21:25.291Z,12.07
2019-01-29T07:23:54.206Z,10.97
2019-01-29T07:26:23.080Z,10.80
2019-01-29T07:28:51.931Z,10.77
2019-01-29T07:31:20.978Z,10.37
2019-01-29T07:33:49.774Z,9.83
2019-01-29T07:36:18.707Z,9.53
2019-01-29T07:38:47.619Z,9.53
2019-01-29T07:41:16.518Z,10.03
2019-01-29T07:43:45.461Z,9.47
2019-01-29T07:46:14.474Z,9.20
2019-01-29T07:48:43.450Z,9.50
2019-01-29T07:51:12.450Z,10.40
2019-01-29T07:53:41.359Z,9.93
2019-01-29T07:56:10.317Z,10.60
2019-01-29T07:58:39.212Z,10.53
2019-01-29T08:01:08.126Z,10.10
2019-01-29T08:03:38.154Z,11.10
2019-01-29T08:06:07.455Z,11.20
2019-01-29T08:08:36.342Z,11.33
2019-01-29T08:11:05.350Z,11.70
2019-01-29T08:13:34.328Z,11.80
2019-01-29T08:16:03.321Z,12.10
2019-01-29T08:18:32.178Z,12.33
2019-01-29T08:21:01.175Z,11.00
2019-01-29T08:23:30.147Z,11.90
2019-01-29T08:25:58.963Z,11.90
2019-01-29T08:28:27.862Z,12.83
2019-01-29T08:30:56.734Z,12.23
2019-01-29T08:33:25.586Z,13.17
2019-01-29T08:35:54.557Z,13.13
2019-01-29T08:38:23.481Z,12.60
2019-01-29T08:40:52.322Z,13.03
2019-01-29T08:43:21.196Z,12.63
2019-01-29T08:45:50.037Z,13.77
2019-01-29T08:48:18.958Z,13.10
2019-01-29T08:50:47.818Z,13.20
2019-01-29T08:53:16.769Z,13.50
2019-01-29T08:55:45.747Z,13.87
2019-01-29T08:58:14.606Z,14.80
2019-01-29T09:00:43.497Z,13.53
2019-01-29T09:03:12.490Z,14.03
2019-01-29T09:05:41.422Z,14.10
2019-01-29T09:08:10.418Z,23.37
2019-01-29T09:10:39.410Z,13.77
2019-01-29T09:13:08.327Z,13.90
2019-01-29T09:15:37.218Z,15.00
2019-01-29T09:18:06.203Z,14.93
2019-01-29T09:20:35.118Z,15.50
2019-01-29T09:23:04.015Z,15.87
2019-01-29T09:25:32.860Z,15.17
2019-01-29T09:28:01.673Z,16.77
2019-01-29T09:30:30.543Z,15.87
2019-01-29T09:32:59.479Z,14.53
2019-01-29T09:35:28.433Z,16.67
2019-01-29T09:37:57.279Z,16.23
2019-01-29T09:40:26.307Z,15.93
2019-01-29T09:42:55.298Z,16.47
2019-01-29T09:45:27.078Z,16.50
2019-01-29T09:47:55.994Z,15.97
2019-01-29T09:50:25.299Z,14.80
2019-01-29T09:52:54.346Z,14.80
2019-01-29T09:55:28.937Z,15.50
2019-01-29T09:57:54.076Z,15.07
2019-01-29T10:00:34.186Z,14.83
2019-01-29T10:03:03.091Z,15.00
2019-01-29T10:05:32.094Z,13.37
2019-01-29T10:08:01.059Z,11.40
2019-01-29T10:10:30.059Z,11.37
2019-01-29T10:12:58.977Z,11.23
2019-01-29T10:15:32.002Z,9.93
2019-01-29T10:18:01.008Z,10.53
2019-01-29T10:20:30.131Z,9.73
2019-01-29T10:22:59.166Z,10.80
2019-01-29T10:25:28.110Z,9.90
2019-01-29T10:27:57.119Z,12.10
2019-01-29T10:30:26.251Z,12.80
2019-01-29T10:32:55.450Z,12.93
2019-01-29T10:35:24.733Z,12.07
2019-01-29T10:37:53.713Z,13.10
2019-01-29T10:40:23.526Z,12.97
2019-01-29T10:42:54.550Z,13.50
2019-01-29T10:45:24.710Z,13.00
2019-01-29T10:47:53.663Z,12.63
2019-01-29T10:50:24.254Z,12.43
2019-01-29T10:52:53.478Z,12.53
2019-01-29T10:55:22.466Z,12.30
2019-01-29T10:57:51.569Z,13.30
2019-01-29T11:00:23.458Z,11.13
2019-01-29T11:02:52.455Z,12.93
2019-01-29T11:05:21.640Z,12.20
2019-01-29T11:07:50.629Z,12.40
2019-01-29T11:10:19.657Z,11.90
2019-01-29T11:12:48.504Z,11.13
2019-01-29T11:15:25.995Z,12.00
2019-01-29T11:17:54.981Z,11.10
2019-01-29T11:20:24.266Z,11.77
2019-01-29T11:22:53.180Z,12.80
2019-01-29T11:25:23.826Z,13.00
2019-01-29T11:27:52.754Z,12.37
2019-01-29T11:30:24.214Z,12.70
2019-01-29T11:32:53.448Z,11.87
2019-01-29T11:35:22.390Z,13.37
2019-01-29T11:37:51.265Z,14.37
2019-01-29T11:40:22.073Z,12.80
2019-01-29T11:42:51.083Z,13.43
2019-01-29T11:45:25.866Z,13.70
2019-01-29T11:47:54.777Z,12.83
2019-01-29T11:50:23.810Z,13.40
2019-01-29T11:52:52.906Z,13.60
2019-01-29T11:55:21.838Z,13.70
2019-01-29T11:57:50.845Z,14.13
2019-01-29T12:00:27.807Z,14.27
2019-01-29T12:02:56.806Z,13.53
2019-01-29T12:05:25.654Z,12.93
2019-01-29T12:07:54.539Z,13.43
2019-01-29T12:10:23.561Z,13.10
2019-01-29T12:12:52.576Z,13.03
2019-01-29T12:15:21.757Z,13.73
2019-01-29T12:17:50.741Z,14.23
2019-01-29T12:20:19.951Z,14.50
2019-01-29T12:22:48.903Z,14.73
2019-01-29T12:25:17.890Z,14.60
2019-01-29T12:27:46.857Z,14.50
2019-01-29T12:30:18.536Z,15.77
2019-01-29T12:32:47.712Z,15.70
2019-01-29T12:35:16.744Z,16.47
2019-01-29T12:37:45.623Z,17.47
2019-01-29T12:40:15.241Z,17.47
2019-01-29T12:42:44.216Z,17.73
2019-01-29T12:45:13.225Z,17.93
2019-01-29T12:47:43.335Z,17.77
2019-01-29T12:50:19.907Z,17.20
2019-01-29T12:53:00.269Z,16.93
2019-01-29T12:55:31.470Z,16.27
2019-01-29T12:58:02.438Z,15.50
2019-01-29T13:00:37.966Z,15.77
2019-01-29T13:03:07.246Z,15.97
2019-01-29T13:05:36.227Z,16.43
2019-01-29T13:08:05.612Z,16.23
2019-01-29T13:10:34.610Z,16.60
2019-01-29T13:13:03.754Z,15.50
2019-01-29T13:15:32.976Z,17.17
2019-01-29T13:18:01.940Z,15.77
2019-01-29T13:20:30.938Z,15.83
2019-01-29T13:22:59.965Z,16.03
2019-01-29T13:25:28.892Z,16.27
2019-01-29T13:27:57.710Z,15.53
2019-01-29T13:30:31.420Z,16.57
2019-01-29T13:33:00.419Z,15.90
2019-01-29T13:35:31.628Z,16.63
2019-01-29T13:38:00.450Z,16.53
2019-01-29T13:40:29.491Z,16.57
2019-01-29T13:42:58.392Z,16.07
2019-01-29T13:45:27.680Z,16.23
2019-01-29T13:47:56.658Z,17.23
2019-01-29T13:50:32.757Z,16.23
2019-01-29T13:53:01.632Z,17.07
2019-01-29T13:55:30.651Z,15.77
2019-01-29T13:57:59.610Z,16.00
2019-01-29T14:00:30.580Z,14.77
2019-01-29T14:02:59.651Z,15.33
2019-01-29T14:05:28.462Z,15.87
2019-01-29T14:07:57.420Z,14.90
2019-01-29T14:10:26.367Z,13.77
2019-01-29T14:12:55.325Z,12.80
2019-01-29T14:15:32.006Z,13.47
2019-01-29T14:18:00.954Z,13.20
2019-01-29T14:20:29.820Z,12.70
2019-01-29T14:22:58.622Z,12.93
2019-01-29T14:25:27.600Z,12.47
2019-01-29T14:27:56.471Z,13.93
2019-01-29T14:30:25.407Z,13.20
2019-01-29T14:32:54.382Z,12.80
2019-01-29T14:35:23.355Z,13.23
2019-01-29T14:38:43.593Z,13.87
2019-01-29T14:41:12.791Z,12.77
2019-01-29T14:43:46.608Z,13.20
2019-01-29T14:46:15.424Z,12.03
2019-01-29T14:48:44.251Z,12.83
2019-01-29T14:51:13.225Z,12.37
2019-01-29T14:53:42.262Z,13.20
2019-01-29T14:56:11.093Z,13.17
2019-01-29T14:58:39.941Z,12.50
2019-01-29T15:01:08.960Z,12.83
2019-01-29T15:03:38.006Z,14.47
2019-01-29T15:06:07.595Z,13.83
2019-01-29T15:08:36.654Z,13.77
2019-01-29T15:11:05.758Z,14.37
2019-01-29T15:13:34.633Z,14.00
2019-01-29T15:16:22.615Z,15.60
2019-01-29T15:18:55.966Z,16.33
2019-01-29T15:21:24.853Z,16.00
2019-01-29T15:23:53.837Z,16.37
2019-01-29T15:26:22.675Z,16.20
2019-01-29T15:28:51.558Z,17.20
2019-01-29T15:31:20.424Z,17.17
2019-01-29T15:39:03.970Z,16.03
2019-01-29T15:44:42.809Z,15.80
2019-01-29T15:46:05.391Z,17.50
2019-01-29T15:52:31.266Z,16.60
2019-01-29T15:58:53.791Z,15.30
2019-01-29T16:01:22.658Z,15.80
2019-01-29T16:03:51.595Z,15.67
2019-01-29T16:06:20.579Z,15.93
2019-01-29T16:08:49.546Z,15.73
2019-01-29T16:11:18.463Z,15.90
2019-01-29T16:13:47.355Z,17.17
2019-01-29T16:16:16.241Z,17.03
2019-01-29T16:18:45.239Z,17.10
2019-01-29T16:21:14.295Z,17.13
2019-01-29T16:23:43.166Z,15.80
2019-01-29T16:26:13.866Z,15.87
2019-01-29T16:28:44.546Z,17.53
2019-01-29T16:31:13.699Z,16.50
2019-01-29T16:33:42.687Z,17.17
2019-01-29T16:36:11.626Z,16.93
2019-01-29T16:38:40.484Z,15.67
2019-01-29T16:41:09.414Z,15.53
2019-01-29T16:43:38.379Z,15.03
2019-01-29T16:46:07.366Z,15.30
2019-01-29T16:48:36.388Z,16.13
2019-01-29T16:51:05.284Z,15.70
2019-01-29T16:53:34.989Z,16.63
2019-01-29T16:56:05.930Z,15.77
2019-01-29T16:58:35.026Z,16.43
2019-01-29T17:01:04.297Z,16.87
2019-01-29T17:03:33.235Z,16.60
2019-01-29T17:06:02.187Z,15.87
2019-01-29T17:08:31.043Z,15.27
2019-01-29T17:11:00.090Z,15.57
2019-01-29T17:13:28.958Z,15.57
2019-01-29T17:15:57.867Z,14.77
2019-01-29T17:18:26.810Z,15.83
2019-01-29T17:20:55.662Z,15.60
2019-01-29T17:23:24.595Z,14.57
2019-01-29T17:25:53.549Z,14.07
2019-01-29T17:28:22.386Z,14.23
2019-01-29T17:30:52.060Z,13.77
2019-01-29T17:33:21.160Z,13.53
2019-01-29T17:35:50.201Z,13.73
2019-01-29T17:38:19.267Z,13.27
2019-01-29T17:40:48.469Z,13.70
2019-01-29T17:43:17.550Z,12.57
2019-01-29T17:45:48.107Z,14.00
2019-01-29T17:48:17.103Z,13.70
2019-01-29T17:50:46.691Z,14.20
2019-01-29T17:53:16.770Z,13.43
2019-01-29T17:55:47.660Z,13.53
2019-01-29T17:58:16.834Z,12.87
2019-01-29T18:00:49.697Z,12.47
2019-01-29T18:03:18.939Z,12.90
2019-01-29T18:05:48.135Z,13.17
2019-01-29T18:08:18.784Z,12.43
2019-01-29T18:10:48.358Z,12.03
2019-01-29T18:13:17.406Z,10.93
2019-01-29T18:15:46.493Z,10.83
2019-01-29T18:18:15.687Z,10.97
2019-01-29T18:20:44.806Z,11.27
2019-01-29T18:23:13.931Z,10.57
2019-01-29T18:25:43.991Z,10.60
2019-01-29T18:28:13.193Z,10.67
2019-01-29T18:30:43.971Z,10.80
2019-01-29T18:33:15.045Z,10.43
2019-01-29T18:35:44.230Z,11.00
2019-01-29T18:38:13.272Z,9.67
2019-01-29T18:40:46.478Z,9.93
2019-01-29T18:43:15.427Z,9.80
2019-01-29T18:45:44.354Z,9.83
2019-01-29T18:48:13.390Z,10.20
2019-01-29T18:50:42.198Z,9.70
2019-01-29T18:53:11.186Z,9.87
2019-01-29T18:55:40.104Z,9.53
2019-01-29T18:58:11.978Z,9.90
2019-01-29T19:00:39.875Z,10.10
2019-01-29T19:03:22.808Z,9.87
2019-01-29T19:14:04.706Z,8.90
2019-01-29T19:16:36.653Z,9.63
2019-01-29T19:19:05.682Z,9.13
2019-01-29T19:21:34.480Z,9.60
2019-01-29T19:24:03.387Z,9.77
2019-01-29T19:26:32.873Z,9.07
2019-01-29T19:29:01.715Z,9.17
2019-01-29T19:31:30.623Z,10.60
2019-01-29T19:33:59.450Z,10.00
2019-01-29T19:36:28.330Z,9.67
2019-01-29T19:38:57.206Z,9.03
2019-01-29T19:41:26.080Z,9.53
2019-01-29T19:43:54.953Z,9.57
2019-01-29T19:46:23.777Z,9.37
2019-01-29T19:48:52.765Z,9.23
2019-01-29T19:51:21.577Z,8.63
2019-01-29T19:53:50.494Z,8.10
2019-01-29T19:56:19.362Z,10.00
2019-01-29T19:58:48.182Z,9.17
2019-01-29T20:01:17.266Z,9.03
2019-01-29T20:03:46.154Z,8.93
2019-01-29T20:06:14.989Z,9.30
2019-01-29T20:08:43.870Z,8.73
2019-01-29T20:11:13.000Z,8.83
2019-01-29T20:13:41.851Z,9.73
2019-01-29T20:16:10.718Z,8.80
2019-01-29T20:18:39.691Z,8.47
2019-01-29T20:21:08.671Z,8.53
2019-01-29T20:23:37.670Z,8.30
2019-01-29T20:26:06.575Z,7.80
2019-01-29T20:28:42.230Z,8.07
2019-01-29T20:31:06.142Z,8.73
2019-01-29T20:33:34.959Z,8.77
2019-01-29T20:36:04.024Z,8.43
2019-01-29T20:38:35.291Z,8.20
2019-01-29T20:41:03.583Z,9.00
2019-01-29T20:43:32.490Z,8.50
2019-01-29T20:46:02.858Z,8.57
2019-01-29T20:48:32.233Z,9.60
2019-01-29T20:51:03.244Z,9.60
2019-01-29T20:53:33.910Z,9.03
2019-01-29T20:56:04.710Z,9.27
2019-01-29T20:58:35.316Z,9.80
2019-01-29T21:01:07.118Z,9.90
2019-01-29T21:03:37.765Z,10.00
2019-01-29T21:06:06.828Z,10.57
2019-01-29T21:08:35.706Z,9.80
2019-01-29T21:11:05.063Z,9.97
2019-01-29T21:13:34.050Z,10.00
2019-01-29T21:16:02.921Z,9.30
2019-01-29T21:18:31.890Z,10.00
2019-01-29T21:21:00.951Z,9.17
2019-01-29T21:23:30.023Z,9.90
2019-01-29T21:25:58.917Z,9.30
2019-01-29T21:28:27.814Z,9.57
2019-01-29T21:30:56.778Z,9.37
2019-01-29T21:33:25.689Z,9.90
2019-01-29T21:35:54.626Z,9.93
2019-01-29T21:38:23.594Z,9.73
2019-01-29T21:40:52.517Z,9.63
2019-01-29T21:43:21.413Z,9.50
2019-01-29T21:45:50.290Z,9.93
2019-01-29T21:48:19.162Z,10.33
2019-01-29T21:50:48.114Z,9.67
2019-01-29T21:53:16.909Z,10.03
2019-01-29T21:55:45.693Z,9.63
2019-01-29T21:58:14.537Z,10.23
2019-01-29T22:00:44.981Z,10.20
2019-01-29T22:03:14.530Z,10.40
2019-01-29T22:05:43.542Z,11.10
2019-01-29T22:08:12.717Z,11.07
2019-01-29T22:10:42.034Z,11.97
2019-01-29T22:13:12.249Z,10.70
2019-01-29T22:15:41.389Z,10.03
2019-01-29T22:18:14.185Z,11.70
2019-01-29T22:20:43.066Z,11.60
2019-01-29T22:23:11.930Z,11.23
2019-01-29T22:25:40.887Z,11.10
2019-01-29T22:28:10.897Z,12.00
2019-01-29T22:30:41.169Z,12.10
2019-01-29T22:33:10.026Z,12.23
2019-01-29T22:35:38.977Z,12.37
2019-01-29T22:38:07.914Z,12.20
2019-01-29T22:40:36.874Z,11.70
2019-01-29T22:43:06.101Z,11.87
2019-01-29T22:45:34.898Z,12.33
2019-01-29T22:48:04.656Z,12.83
2019-01-29T22:50:35.465Z,11.90
2019-01-29T22:53:04.427Z,12.50
2019-01-29T22:55:33.293Z,12.77
2019-01-29T22:58:02.166Z,11.67
2019-01-29T23:00:58.673Z,12.67
2019-01-29T23:03:30.158Z,13.10
2019-01-29T23:06:09.489Z,13.63
2019-01-29T23:08:38.281Z,14.00
2019-01-29T23:11:07.211Z,13.33
2019-01-29T23:13:36.087Z,12.27
2019-01-29T23:16:05.356Z,12.33
2019-01-29T23:18:34.238Z,13.63
2019-01-29T23:21:03.098Z,12.70
2019-01-29T23:23:32.001Z,12.77
2019-01-29T23:26:00.794Z,13.07
2019-01-29T23:28:29.677Z,13.20
2019-01-29T23:30:58.598Z,12.83
2019-01-29T23:33:27.522Z,12.70
2019-01-29T23:35:56.305Z,13.10
2019-01-29T23:38:25.113Z,12.63
2019-01-29T23:40:54.058Z,13.90
2019-01-29T23:43:22.895Z,13.90
2019-01-29T23:45:51.764Z,11.90
2019-01-29T23:48:20.716Z,11.50
2019-01-29T23:50:49.502Z,11.50
2019-01-29T23:53:18.493Z,11.00
2019-01-29T23:55:47.241Z,10.63
2019-01-29T23:58:16.026Z,11.43
